Terminal Aerodrome Forecast
Issued by NWS

Home | Current Version | Previous Version | Text Only | Print | Product List | Glossary Off
Versions: 1 2 3 4 5 6 7 8 9 10 11 12 13 14 15 16 17 18 19 20 21 22

365
FTUS43 KTOP 241126
TAFMHK
TAF
KMHK 241126Z 2412/2512 10008KT P6SM VCSH SCT025 BKN200
      WS020/21045KT
      TEMPO 2412/2413 03010KT
     FM241300 21009KT P6SM FEW040 BKN200
     FM241900 33006KT P6SM VCTS BKN040CB
     FM250000 VRB03KT 6SM -TSRA SCT015 BKN040CB=

USA.gov is the U.S. government's official web portal to all federal, state and local government web resources and services.